createdAt,value
2019-01-15T00:00:19.635Z,1009.34
2019-01-15T00:03:49.660Z,1009.39
2019-01-15T00:07:19.676Z,1009.27
2019-01-15T00:10:50.611Z,1008.98
2019-01-15T00:14:20.585Z,1009.11
2019-01-15T00:17:50.666Z,1008.95
2019-01-15T00:21:20.828Z,1009.02
2019-01-15T00:24:51.020Z,1009.3
2019-01-15T00:28:21.121Z,1009.62
2019-01-15T00:31:51.182Z,1009.7
2019-01-15T00:35:21.084Z,1009.77
2019-01-15T00:38:51.165Z,1009.92
2019-01-15T00:42:21.226Z,1009.91
2019-01-15T00:45:51.292Z,1010.37
2019-01-15T00:49:21.379Z,1010.6
2019-01-15T00:52:51.480Z,1011.06
2019-01-15T00:56:21.552Z,1010.86
2019-01-15T00:59:51.683Z,1010.72
2019-01-15T01:03:21.764Z,1010.65
2019-01-15T01:06:51.925Z,1010.17
2019-01-15T01:10:22.027Z,1010.09
2019-01-15T01:13:52.349Z,1009.92
2019-01-15T01:17:22.380Z,1009.65
2019-01-15T01:20:52.512Z,1009.38
2019-01-15T01:24:22.582Z,1009.3
2019-01-15T01:27:52.615Z,1008.87
2019-01-15T01:31:22.665Z,1008.66
2019-01-15T01:34:52.837Z,1008.13
2019-01-15T01:38:22.818Z,1007.37
2019-01-15T01:41:53.229Z,1006.8
2019-01-15T01:45:23.350Z,1006.56
2019-01-15T01:48:53.432Z,1006.4
2019-01-15T01:52:23.543Z,1006.08
2019-01-15T01:55:54.669Z,1005.61
2019-01-15T01:59:24.696Z,1005.52
2019-01-15T02:00:18.887Z,1005.54
2019-01-15T02:03:48.958Z,1005.51
2019-01-15T02:07:19.069Z,1005.16
2019-01-15T02:10:49.196Z,1004.8
2019-01-15T02:14:20.233Z,1005.34
2019-01-15T02:17:50.673Z,1005.61
2019-01-15T02:21:20.805Z,1005.11
2019-01-15T02:24:51.035Z,1003.62
2019-01-15T02:28:21.137Z,1002.75
2019-01-15T02:31:51.218Z,1002.26
2019-01-15T02:35:21.262Z,1001.97
2019-01-15T02:38:51.274Z,1001.73
2019-01-15T02:42:21.267Z,1001.91
2019-01-15T02:45:51.343Z,1002.16
2019-01-15T02:49:21.398Z,1002.53
2019-01-15T02:52:51.524Z,1002.73
2019-01-15T02:56:21.618Z,1003.01
2019-01-15T02:59:51.670Z,1003.17
2019-01-15T03:03:21.800Z,1003.24
2019-01-15T03:06:51.949Z,1003.28
2019-01-15T03:10:22.143Z,1003.15
2019-01-15T03:13:52.215Z,1002.92
2019-01-15T03:17:23.185Z,1002.75
2019-01-15T03:20:53.307Z,1002.35
2019-01-15T03:24:23.508Z,1002.11
2019-01-15T03:27:53.650Z,1002.15
2019-01-15T03:31:23.690Z,1002.33
2019-01-15T03:34:53.802Z,1002.64
2019-01-15T03:38:23.933Z,1003.04
2019-01-15T03:41:54.075Z,1003.36
2019-01-15T03:45:24.196Z,1003.49
2019-01-15T03:48:54.279Z,1003.46
2019-01-15T03:52:24.448Z,1003.57
2019-01-15T03:55:54.477Z,1003.25
2019-01-15T03:59:24.516Z,1003.5
2019-01-15T04:00:18.771Z,1003.39
2019-01-15T04:03:48.844Z,1003.51
2019-01-15T04:07:19.524Z,1003.63
2019-01-15T04:10:49.525Z,1003.48
2019-01-15T04:14:19.627Z,1003.55
2019-01-15T04:17:49.818Z,1003.71
2019-01-15T04:21:19.929Z,1003.81
2019-01-15T04:24:50.050Z,1004.1
2019-01-15T04:28:20.056Z,1003.51
2019-01-15T04:31:50.107Z,1003.57
2019-01-15T04:35:20.250Z,1003.9
2019-01-15T04:38:50.536Z,1003.8
2019-01-15T04:42:20.667Z,1003.82
2019-01-15T04:45:50.750Z,1003.77
2019-01-15T04:49:20.810Z,1003.51
2019-01-15T04:52:54.965Z,1003.43
2019-01-15T04:56:25.092Z,1003.3
2019-01-15T04:59:55.314Z,1003.38
2019-01-15T05:03:25.338Z,1003.22
2019-01-15T05:06:55.396Z,1003.05
2019-01-15T05:10:25.469Z,1003.15
2019-01-15T05:13:55.540Z,1003.31
2019-01-15T05:17:25.491Z,1003.05
2019-01-15T05:20:57.070Z,1002.97
2019-01-15T05:24:27.064Z,1003.21
2019-01-15T05:27:57.166Z,1003.13
2019-01-15T05:31:27.287Z,1002.78
2019-01-15T05:34:57.477Z,1002.48
2019-01-15T05:38:27.559Z,1002.38
2019-01-15T05:41:57.727Z,1002.35
2019-01-15T05:45:31.241Z,1002.3
2019-01-15T05:49:01.362Z,1002.4
2019-01-15T05:52:31.361Z,1002.55
2019-01-15T05:56:01.558Z,1002.55
2019-01-15T05:59:31.615Z,1002.38
2019-01-15T06:00:16.936Z,1002.62
2019-01-15T06:03:47.057Z,1002.6
2019-01-15T06:07:16.998Z,1002.49
2019-01-15T06:10:47.080Z,1002.92
2019-01-15T06:14:17.071Z,1003.12
2019-01-15T06:17:47.172Z,1002.61
2019-01-15T06:21:18.170Z,1002.59
2019-01-15T06:24:48.316Z,1002.11
2019-01-15T06:28:18.496Z,1001.72
2019-01-15T06:31:48.611Z,1001.42
2019-01-15T06:35:18.729Z,1001.31
2019-01-15T06:38:48.841Z,1001.31
2019-01-15T06:42:18.991Z,1001.3
2019-01-15T06:45:49.183Z,1001.13
2019-01-15T06:49:19.277Z,1001.09
2019-01-15T06:52:49.421Z,1001.43
2019-01-15T06:56:19.449Z,1001.83
2019-01-15T06:59:49.540Z,1002.28
2019-01-15T07:03:19.566Z,1002.49
2019-01-15T07:06:49.640Z,1002.84
2019-01-15T07:10:22.397Z,1003.08
2019-01-15T07:13:57.041Z,1002.57
2019-01-15T07:17:27.254Z,1002.88
2019-01-15T07:20:57.495Z,1003.56
2019-01-15T07:24:28.346Z,1003.27
2019-01-15T07:27:59.057Z,1003.47
2019-01-15T07:31:29.149Z,1003.81
2019-01-15T07:34:59.202Z,1004.12
2019-01-15T07:38:29.192Z,1003.93
2019-01-15T07:41:59.302Z,1004.01
2019-01-15T07:45:29.400Z,1004.13
2019-01-15T07:48:59.516Z,1004.59
2019-01-15T07:52:29.587Z,1004.79
2019-01-15T07:55:59.677Z,1005.29
2019-01-15T07:59:29.579Z,1005.14
2019-01-15T08:00:17.980Z,1004.99
2019-01-15T08:03:48.196Z,1005.77
2019-01-15T08:07:18.282Z,1006.13
2019-01-15T08:10:48.373Z,1006.81
2019-01-15T08:14:18.435Z,1006.78
2019-01-15T08:17:48.749Z,1005.47
2019-01-15T08:21:18.918Z,1005.8
2019-01-15T08:24:49.949Z,1004.82
2019-01-15T08:28:19.960Z,1004.79
2019-01-15T08:31:50.041Z,1004.28
2019-01-15T08:35:20.442Z,1004.75
2019-01-15T08:38:50.475Z,1004.52
2019-01-15T08:42:20.577Z,1003.34
2019-01-15T08:45:50.576Z,1002.63
2019-01-15T08:49:20.728Z,1003.81
2019-01-15T08:52:51.041Z,1004.13
2019-01-15T08:56:21.100Z,1002.43
2019-01-15T08:59:51.171Z,1002.89
2019-01-15T09:03:21.113Z,1003.41
2019-01-15T09:06:51.197Z,1001.82
2019-01-15T09:10:21.352Z,1001.6
2019-01-15T09:13:51.516Z,1001.28
2019-01-15T09:17:21.698Z,1000.95
2019-01-15T09:20:51.844Z,1000.53
2019-01-15T09:24:21.901Z,1000.81
2019-01-15T09:27:53.021Z,1001.41
2019-01-15T09:31:23.073Z,1000.21
2019-01-15T09:34:53.092Z,1000.99
2019-01-15T09:38:23.126Z,1000.47
2019-01-15T09:41:53.317Z,1000
2019-01-15T09:45:23.717Z,1000.62
2019-01-15T09:48:53.799Z,998.85
2019-01-15T09:52:24.187Z,999.34
2019-01-15T09:55:54.243Z,1000.41
2019-01-15T09:59:24.342Z,1000.17
2019-01-15T10:00:17.273Z,999.84
2019-01-15T10:03:47.334Z,999.38
2019-01-15T10:07:17.375Z,998.98
2019-01-15T10:10:47.436Z,998.88
2019-01-15T10:14:17.568Z,999.18
2019-01-15T10:17:47.680Z,998.95
2019-01-15T10:21:17.730Z,999.82
2019-01-15T10:24:47.952Z,998.7
2019-01-15T10:39:16.080Z,996.6
2019-01-15T10:43:05.902Z,997.11
2019-01-15T10:46:49.149Z,996.63
2019-01-15T10:50:19.280Z,996.78
2019-01-15T10:54:14.541Z,996.52
2019-01-15T10:57:51.861Z,996.68
2019-01-15T11:02:01.914Z,997.74
2019-01-15T11:05:32.667Z,997.55
2019-01-15T11:09:08.030Z,998.2
2019-01-15T11:12:38.038Z,998.16
2019-01-15T11:16:08.143Z,997.26
2019-01-15T11:19:38.120Z,997.74
2019-01-15T11:23:08.215Z,996.82
2019-01-15T11:26:38.264Z,996.98
2019-01-15T11:30:08.594Z,997.08
2019-01-15T11:33:39.500Z,996.77
2019-01-15T11:37:09.667Z,996.56
2019-01-15T11:40:39.858Z,996.43
2019-01-15T11:44:09.893Z,996.99
2019-01-15T11:47:39.963Z,996.44
2019-01-15T11:51:10.052Z,996.57
2019-01-15T11:54:40.043Z,996
2019-01-15T11:58:10.104Z,994.98
2019-01-15T12:00:22.295Z,995.67
2019-01-15T12:04:00.136Z,995.47
2019-01-15T12:08:55.280Z,994.85
2019-01-15T12:12:53.819Z,995.57
2019-01-15T12:16:40.160Z,996.43
2019-01-15T12:20:39.082Z,995.35
2019-01-15T12:25:24.596Z,996.16
2019-01-15T12:29:14.185Z,996.63
2019-01-15T12:32:57.947Z,995.45
2019-01-15T12:36:41.457Z,995.58
2019-01-15T12:42:45.459Z,993.85
2019-01-15T12:46:25.377Z,993.77
2019-01-15T12:50:07.402Z,993.24
2019-01-15T12:53:51.893Z,993.2
2019-01-15T12:57:32.994Z,993.05
2019-01-15T13:01:42.524Z,992.53
2019-01-15T13:05:26.197Z,992.39
2019-01-15T13:12:30.809Z,992.42
2019-01-15T13:16:11.650Z,991.82
2019-01-15T13:20:25.582Z,992.25
2019-01-15T13:26:28.515Z,991.44
2019-01-15T13:30:13.305Z,991.73
2019-01-15T13:33:55.466Z,992.04
2019-01-15T13:42:20.539Z,992.34
2019-01-15T13:46:06.360Z,992.97
2019-01-15T13:50:24.961Z,992.96
2019-01-15T13:56:32.403Z,993.56
2019-01-15T14:05:14.537Z,993.64
2019-01-15T14:09:11.410Z,993.37
2019-01-15T14:15:11.977Z,993.26
2019-01-15T14:18:53.731Z,993.11
2019-01-15T14:22:36.382Z,993.36
2019-01-15T14:26:48.633Z,993.27
2019-01-15T14:33:21.041Z,993.06
2019-01-15T14:37:10.671Z,992.4
2019-01-15T14:48:09.580Z,992.4
2019-01-15T14:56:39.023Z,992.86
2019-01-15T15:00:20.044Z,991.86
2019-01-15T15:06:19.805Z,991.95
2019-01-15T15:12:24.198Z,991.51
2019-01-15T15:16:04.738Z,991.61
2019-01-15T15:20:33.651Z,991.64
2019-01-15T15:24:22.951Z,991.36
2019-01-15T15:32:44.934Z,991.23
2019-01-15T15:36:28.525Z,991.18
2019-01-15T15:41:11.651Z,991.38
2019-01-15T15:44:54.624Z,991.12
2019-01-15T15:49:25.870Z,991.4
2019-01-15T15:55:30.651Z,990.83
2019-01-15T16:00:35.983Z,990.73
2019-01-15T16:04:16.134Z,991.25
2019-01-15T16:08:24.773Z,991.03
2019-01-15T16:12:07.856Z,990.76
2019-01-15T16:15:46.778Z,990.62
2019-01-15T16:21:50.440Z,990.78
2019-01-15T16:25:30.851Z,990.98
2019-01-15T16:29:13.061Z,990.92
2019-01-15T16:32:53.363Z,990.37
2019-01-15T16:36:32.853Z,990.48
2019-01-15T16:40:46.110Z,990.55
2019-01-15T16:49:10.948Z,989.9
2019-01-15T16:53:55.719Z,989.87
2019-01-15T16:57:37.760Z,990.16
2019-01-15T17:03:35.953Z,989.77
2019-01-15T17:07:26.695Z,989.89
2019-01-15T17:11:05.796Z,990.24
2019-01-15T17:14:52.356Z,989.32
2019-01-15T17:18:47.378Z,989.86
2019-01-15T17:22:26.381Z,990.07
2019-01-15T17:26:10.350Z,989.13
2019-01-15T17:29:48.097Z,989.4
2019-01-15T17:33:28.632Z,989.46
2019-01-15T17:37:11.923Z,989.44
2019-01-15T17:41:07.303Z,988.74
2019-01-15T17:47:26.236Z,989.05
2019-01-15T17:55:59.805Z,988.82
2019-01-15T18:05:29.703Z,988.6
2019-01-15T18:09:11.643Z,988.55
2019-01-15T18:15:24.925Z,988.38
2019-01-15T18:22:15.012Z,988.66
2019-01-15T18:26:26.969Z,988.32
2019-01-15T18:37:27.925Z,988.31
2019-01-15T18:41:16.463Z,988.26
2019-01-15T18:46:02.065Z,988.57
2019-01-15T18:49:47.136Z,988.92
2019-01-15T18:53:38.137Z,988.85
2019-01-15T18:58:40.068Z,988.95
2019-01-15T19:04:37.831Z,988.78
2019-01-15T19:08:19.892Z,989.01
2019-01-15T19:12:29.827Z,988.95
2019-01-15T19:16:26.935Z,989.15
2019-01-15T19:20:46.165Z,989.15
2019-01-15T19:24:26.260Z,988.99
2019-01-15T19:28:03.969Z,989.21
2019-01-15T19:36:35.432Z,989.47
2019-01-15T19:40:16.522Z,989.35
2019-01-15T19:49:11.184Z,989.65
2019-01-15T19:52:56.447Z,989.52
2019-01-15T19:56:40.217Z,989.46
2019-01-15T20:00:24.588Z,989.25
2019-01-15T20:04:21.099Z,989.28
2019-01-15T20:08:36.273Z,989.03
2019-01-15T20:13:45.763Z,988.83
2019-01-15T20:20:49.536Z,988.99
2019-01-15T20:24:30.176Z,988.61
2019-01-15T20:28:11.667Z,988.55
2019-01-15T20:34:11.822Z,988.18
2019-01-15T20:37:52.320Z,987.84
2019-01-15T20:46:17.043Z,987.28
2019-01-15T20:50:09.514Z,987.33
2019-01-15T20:55:44.715Z,987.32
2019-01-15T21:01:43.298Z,987.06
2019-01-15T21:05:26.388Z,986.85
2019-01-15T21:09:10.059Z,986.5
2019-01-15T21:12:52.880Z,986.7
2019-01-15T21:17:42.526Z,986.09
2019-01-15T21:21:58.174Z,986.36
2019-01-15T21:26:42.085Z,986.02
2019-01-15T21:30:53.858Z,985.86
2019-01-15T21:37:58.128Z,985.77
2019-01-15T21:45:04.440Z,985.19
2019-01-15T21:51:24.272Z,984.62
2019-01-15T21:55:16.784Z,984.4
2019-01-15T21:59:03.425Z,984.01
2019-01-15T22:00:29.135Z,983.87
2019-01-15T22:06:35.927Z,983.77
2019-01-15T22:11:21.698Z,983.98
2019-01-15T22:15:07.271Z,983.83
2019-01-15T22:18:49.761Z,983.78
2019-01-15T22:24:55.372Z,983.03
2019-01-15T22:30:55.296Z,983.06
2019-01-15T22:35:43.066Z,982.92
2019-01-15T22:39:20.286Z,982.59
2019-01-15T22:43:05.657Z,982.94
2019-01-15T22:47:21.239Z,982.78
2019-01-15T22:54:26.171Z,983.18
2019-01-15T22:59:15.043Z,983.02
2019-01-15T23:06:31.755Z,983.41
2019-01-15T23:12:29.866Z,983.33
2019-01-15T23:16:07.967Z,983.19
2019-01-15T23:19:57.199Z,982.88
2019-01-15T23:26:29.111Z,982.4
2019-01-15T23:34:51.256Z,981.54
2019-01-15T23:38:36.650Z,981.58
2019-01-15T23:44:46.206Z,981.22
2019-01-15T23:50:04.688Z,981.07
2019-01-15T23:54:00.114Z,980.74
2019-01-15T23:57:40.713Z,980.73
